createdAt,value
2022-11-19T10:40:25.075Z,2.70
2022-11-19T10:42:57.359Z,2.80
2022-11-19T10:45:27.553Z,2.80
2022-11-19T10:48:02.292Z,2.70
2022-11-19T10:50:32.921Z,2.80
2022-11-19T10:53:30.297Z,2.70
2022-11-19T10:56:04.173Z,2.70
2022-11-19T10:58:36.878Z,2.80
2022-11-19T11:01:05.992Z,2.70
2022-11-19T11:03:54.991Z,2.80
2022-11-19T11:06:22.953Z,2.80
2022-11-19T11:08:52.249Z,2.80
2022-11-19T11:11:21.772Z,2.70
2022-11-19T11:14:07.298Z,2.70
2022-11-19T11:16:48.347Z,2.80
2022-11-19T11:19:19.927Z,2.70
2022-11-19T11:21:51.392Z,2.60
2022-11-19T11:24:18.398Z,2.70
2022-11-19T11:26:45.091Z,2.80
2022-11-19T11:29:14.600Z,2.60
2022-11-19T11:31:43.996Z,2.70
2022-11-19T11:34:34.564Z,2.70
2022-11-19T11:37:03.783Z,2.70
2022-11-19T11:39:44.236Z,2.70
2022-11-19T11:42:17.533Z,2.80
2022-11-19T11:44:59.781Z,2.70
2022-11-19T11:47:38.586Z,3.00
2022-11-19T11:50:12.283Z,2.90
2022-11-19T11:52:45.053Z,3.00
2022-11-19T11:55:29.545Z,3.10
2022-11-19T11:57:58.533Z,3.10
2022-11-19T12:00:34.249Z,3.00
2022-11-19T12:03:11.392Z,3.20
2022-11-19T12:05:44.781Z,3.20
2022-11-19T12:08:32.747Z,3.20
2022-11-19T12:11:17.562Z,3.30
2022-11-19T12:14:08.031Z,3.30
2022-11-19T12:16:56.508Z,3.30
2022-11-19T12:19:36.877Z,3.10
2022-11-19T12:22:42.633Z,3.20
2022-11-19T12:25:32.852Z,3.10
2022-11-19T12:28:27.499Z,3.20
2022-11-19T12:31:29.897Z,3.20
2022-11-19T12:34:24.731Z,3.30
2022-11-19T12:36:52.230Z,3.20
2022-11-19T12:39:46.618Z,3.20
2022-11-19T12:42:53.253Z,3.10
2022-11-19T12:45:30.855Z,3.10
2022-11-19T12:48:19.008Z,3.20
2022-11-19T12:51:09.924Z,3.20
2022-11-19T12:54:16.907Z,3.20
2022-11-19T12:57:11.575Z,3.30
2022-11-19T13:00:14.240Z,3.20
2022-11-19T13:03:01.625Z,3.20
2022-11-19T13:05:49.230Z,3.20
2022-11-19T13:08:32.963Z,3.20
2022-11-19T13:11:14.903Z,3.10
2022-11-19T13:13:46.837Z,3.10
2022-11-19T13:16:16.847Z,3.00
2022-11-19T13:18:48.147Z,3.00
2022-11-19T13:21:21.233Z,2.90
2022-11-19T13:23:49.316Z,3.00
2022-11-19T13:26:23.081Z,3.10
2022-11-19T13:28:58.594Z,3.00
2022-11-19T13:31:36.000Z,2.90
2022-11-19T13:34:25.557Z,2.90
2022-11-19T13:37:12.825Z,3.00
2022-11-19T13:39:48.702Z,3.00
2022-11-19T13:42:35.951Z,3.00
2022-11-19T13:45:03.088Z,3.10
2022-11-19T13:47:59.899Z,3.10
2022-11-19T13:53:07.331Z,3.10
2022-11-19T13:55:34.033Z,2.90
2022-11-19T13:58:14.904Z,2.90
2022-11-19T14:00:54.364Z,2.80
2022-11-19T14:03:26.021Z,2.80
2022-11-19T14:06:17.629Z,2.70
2022-11-19T14:09:03.028Z,2.70
2022-11-19T14:11:55.565Z,2.70
2022-11-19T14:14:56.293Z,2.70
2022-11-19T14:18:02.633Z,2.70
2022-11-19T14:20:59.186Z,2.60
2022-11-19T14:24:14.317Z,2.60
2022-11-19T14:26:42.614Z,2.60
2022-11-19T14:29:27.116Z,2.60
2022-11-19T14:32:03.105Z,2.60
2022-11-19T14:34:42.069Z,2.50
2022-11-19T14:37:23.206Z,2.40
2022-11-19T14:40:01.328Z,2.50
2022-11-19T14:42:28.071Z,2.50
2022-11-19T14:45:03.996Z,2.50
2022-11-19T14:47:38.134Z,2.40
2022-11-19T14:50:09.044Z,2.30
2022-11-19T14:52:51.231Z,2.30
2022-11-19T14:55:29.086Z,2.40
2022-11-19T14:58:03.746Z,2.30
2022-11-19T15:00:35.021Z,2.30
2022-11-19T15:03:05.052Z,2.30
2022-11-19T15:05:43.951Z,2.20
2022-11-19T15:08:16.770Z,2.10
2022-11-19T15:10:46.737Z,2.20
2022-11-19T15:13:27.413Z,2.00
2022-11-19T15:16:05.669Z,2.00
2022-11-19T15:18:41.596Z,1.90
2022-11-19T15:21:13.850Z,1.90
2022-11-19T15:24:02.529Z,1.80
2022-11-19T15:26:47.628Z,1.90
2022-11-19T15:29:41.703Z,1.90
2022-11-19T15:32:33.220Z,1.80
2022-11-19T15:35:33.499Z,1.70
2022-11-19T15:38:19.717Z,1.70
2022-11-19T15:40:49.977Z,1.60
2022-11-19T15:43:25.083Z,1.60
2022-11-19T15:46:02.700Z,1.40
2022-11-19T15:48:41.563Z,1.40
2022-11-19T15:51:13.187Z,1.50
2022-11-19T15:54:06.946Z,1.50
2022-11-19T15:56:49.048Z,1.50
2022-11-19T15:59:19.102Z,1.40
2022-11-19T16:01:59.440Z,1.30
2022-11-19T16:04:32.186Z,1.30
2022-11-19T16:06:58.909Z,1.20
2022-11-19T16:09:25.998Z,1.10
2022-11-19T16:12:11.669Z,0.90
2022-11-19T16:14:57.080Z,0.90
2022-11-19T16:17:32.306Z,1.00
2022-11-19T16:20:11.304Z,0.90
2022-11-19T16:22:52.262Z,0.80
2022-11-19T16:25:34.198Z,0.80
2022-11-19T16:28:30.329Z,0.70
2022-11-19T16:31:05.009Z,0.80
2022-11-19T16:33:33.869Z,0.70
2022-11-19T16:36:14.299Z,0.80
2022-11-19T16:38:45.397Z,0.70
2022-11-19T16:41:35.920Z,0.50
2022-11-19T16:44:09.916Z,0.40
2022-11-19T16:46:36.966Z,0.50
2022-11-19T16:49:08.706Z,0.50
2022-11-19T16:51:52.828Z,0.50
2022-11-19T16:54:48.837Z,0.50
2022-11-19T16:57:21.106Z,0.40
2022-11-19T17:00:13.800Z,0.30
2022-11-19T17:02:41.289Z,0.30
2022-11-19T17:05:20.826Z,0.20
2022-11-19T17:08:03.769Z,0.20
2022-11-19T17:10:31.605Z,0.30
2022-11-19T17:13:04.150Z,0.30
2022-11-19T17:15:36.743Z,0.30
2022-11-19T17:18:27.794Z,0.30
2022-11-19T17:21:00.321Z,0.30
2022-11-19T17:23:32.835Z,0.40
2022-11-19T17:26:07.977Z,0.30
2022-11-19T17:28:36.422Z,0.20
2022-11-19T17:31:27.220Z,0.20
2022-11-19T17:34:06.771Z,0.40
2022-11-19T19:47:35.532Z,-0.50
2022-11-19T19:50:02.329Z,-0.50
2022-11-19T19:57:23.680Z,-0.70
2022-11-19T19:59:50.340Z,-0.60
2022-11-19T20:04:44.401Z,-0.70
2022-11-19T20:07:11.092Z,-0.80
2022-11-19T20:09:37.735Z,-0.80
2022-11-19T20:12:04.717Z,-0.70
2022-11-19T20:14:31.359Z,-0.70
2022-11-19T20:16:58.051Z,-0.90
2022-11-19T20:19:25.101Z,-0.90
2022-11-19T20:21:52.397Z,-0.80
2022-11-19T20:24:20.184Z,-1.00
2022-11-19T20:26:47.042Z,-1.20
2022-11-19T20:29:14.366Z,-1.20
2022-11-19T20:31:45.938Z,-1.10
2022-11-19T20:34:13.054Z,-1.30
2022-11-19T20:36:39.825Z,-1.30
2022-11-19T20:39:06.932Z,-1.20
2022-11-19T20:41:52.363Z,-1.40
2022-11-19T20:44:22.729Z,-1.50
2022-11-19T20:47:02.106Z,-1.50
2022-11-19T20:49:32.334Z,-1.50
2022-11-19T20:51:59.316Z,-1.30
2022-11-19T20:54:27.137Z,-1.30
2022-11-19T20:56:55.210Z,-1.40
2022-11-19T21:01:51.142Z,-1.60
2022-11-19T21:04:19.083Z,-1.40
2022-11-19T21:06:46.373Z,-1.30
2022-11-19T21:09:15.602Z,-1.40
2022-11-19T21:11:42.939Z,-1.60
2022-11-19T21:16:36.940Z,-1.60
2022-11-19T21:19:04.249Z,-1.60
2022-11-19T21:21:30.936Z,-1.70
2022-11-19T21:26:27.070Z,-1.50
2022-11-19T21:31:39.071Z,-1.80
2022-11-19T21:34:06.695Z,-1.60
2022-11-19T21:36:33.644Z,-1.60
2022-11-19T21:43:55.740Z,-1.60
2022-11-19T21:51:22.991Z,-1.70
2022-11-19T21:53:53.968Z,-1.70
2022-11-19T21:56:20.710Z,-1.50
2022-11-19T21:58:47.489Z,-1.60
2022-11-19T22:03:42.015Z,-1.90
2022-11-19T22:13:54.119Z,-1.70
2022-11-19T22:16:21.745Z,-1.80
2022-11-19T22:18:48.468Z,-1.80
2022-11-19T22:28:40.166Z,-1.90
2022-11-19T22:41:13.719Z,-2.10
